createdAt,value
2023-02-28T00:01:31.094Z,2.57
2023-02-28T00:03:59.082Z,3.20
2023-02-28T00:06:26.860Z,3.57
2023-02-28T00:08:53.948Z,2.80
2023-02-28T00:11:21.142Z,3.00
2023-02-28T00:13:49.528Z,3.53
2023-02-28T00:16:21.489Z,3.23
2023-02-28T00:18:49.846Z,3.03
2023-02-28T00:21:19.209Z,3.70
2023-02-28T00:23:46.258Z,3.10
2023-02-28T00:26:13.398Z,4.00
2023-02-28T00:28:40.406Z,3.47
2023-02-28T00:31:07.377Z,3.00
2023-02-28T00:33:34.371Z,4.43
2023-02-28T00:36:08.120Z,3.40
2023-02-28T00:38:35.236Z,3.20
2023-02-28T00:41:05.652Z,3.37
2023-02-28T00:43:35.311Z,3.27
2023-02-28T00:46:02.979Z,3.73
2023-02-28T00:48:30.063Z,3.87
2023-02-28T00:50:56.997Z,3.77
2023-02-28T00:53:24.162Z,3.70
2023-02-28T00:55:51.915Z,4.23
2023-02-28T00:58:19.057Z,3.87
2023-02-28T01:00:49.910Z,3.40
2023-02-28T01:03:21.711Z,3.73
2023-02-28T01:05:48.875Z,4.10
2023-02-28T01:08:16.023Z,3.30
2023-02-28T01:10:43.495Z,2.90
2023-02-28T01:13:10.683Z,3.03
2023-02-28T01:15:37.793Z,4.17
2023-02-28T01:18:04.815Z,4.50
2023-02-28T01:20:31.752Z,4.20
2023-02-28T01:22:58.692Z,4.17
2023-02-28T01:25:25.618Z,3.30
2023-02-28T01:27:53.164Z,4.30
2023-02-28T01:30:20.185Z,3.07
2023-02-28T01:32:47.097Z,4.17
2023-02-28T01:35:14.030Z,5.17
2023-02-28T01:37:40.949Z,3.03
2023-02-28T01:40:08.924Z,4.40
2023-02-28T01:42:35.798Z,4.17
2023-02-28T01:45:20.832Z,4.20
2023-02-28T01:47:52.093Z,3.70
2023-02-28T01:50:27.967Z,3.90
2023-02-28T01:52:58.934Z,3.80
2023-02-28T01:55:29.617Z,4.60
2023-02-28T01:57:59.607Z,3.70
2023-02-28T02:00:28.760Z,4.20
2023-02-28T02:03:01.173Z,3.87
2023-02-28T02:05:32.211Z,3.93
2023-02-28T02:08:06.016Z,4.10
2023-02-28T02:10:45.037Z,4.20
2023-02-28T02:13:48.354Z,4.00
2023-02-28T02:16:26.832Z,4.30
2023-02-28T02:18:57.870Z,4.17
2023-02-28T02:21:48.729Z,5.20
2023-02-28T02:24:48.385Z,4.77
2023-02-28T02:27:19.215Z,4.50
2023-02-28T02:30:21.021Z,4.63
2023-02-28T02:33:41.043Z,4.63
2023-02-28T02:36:28.493Z,3.63
2023-02-28T02:39:26.111Z,4.37
2023-02-28T02:42:01.295Z,4.13
2023-02-28T02:45:07.835Z,3.80
2023-02-28T02:47:35.771Z,4.00
2023-02-28T02:50:07.575Z,4.77
2023-02-28T02:52:45.350Z,4.17
2023-02-28T02:55:15.904Z,4.30
2023-02-28T02:58:01.336Z,4.57
2023-02-28T03:00:40.748Z,4.70
2023-02-28T03:03:10.788Z,4.27
2023-02-28T03:05:47.479Z,4.40
2023-02-28T03:08:15.546Z,4.30
2023-02-28T03:10:49.952Z,4.57
2023-02-28T03:13:56.110Z,6.30
2023-02-28T03:16:44.833Z,5.20
2023-02-28T03:19:45.490Z,4.67
2023-02-28T03:22:26.248Z,4.23
2023-02-28T03:25:08.886Z,5.20
2023-02-28T03:27:59.840Z,4.10
2023-02-28T03:30:49.122Z,5.03
2023-02-28T03:33:40.776Z,5.00
2023-02-28T03:36:17.144Z,6.50
2023-02-28T03:38:51.932Z,5.50
2023-02-28T03:41:24.232Z,5.47
2023-02-28T03:44:16.708Z,5.20
2023-02-28T03:46:55.277Z,5.43
2023-02-28T03:49:32.283Z,4.83
2023-02-28T03:52:05.321Z,4.37
2023-02-28T03:54:44.003Z,4.77
2023-02-28T03:57:29.036Z,4.73
2023-02-28T04:00:06.827Z,4.60
2023-02-28T04:02:34.675Z,4.37
2023-02-28T04:05:02.127Z,5.47
2023-02-28T04:07:32.434Z,4.67
2023-02-28T04:10:00.063Z,4.37
2023-02-28T04:12:27.256Z,4.77
2023-02-28T04:14:55.322Z,4.80
2023-02-28T04:17:22.375Z,5.17
2023-02-28T04:19:49.394Z,6.47
2023-02-28T04:22:18.162Z,5.00
2023-02-28T04:24:45.532Z,7.17
2023-02-28T04:27:12.471Z,4.90
2023-02-28T04:29:39.477Z,5.40
2023-02-28T04:32:06.911Z,5.23
2023-02-28T04:34:34.100Z,4.93
2023-02-28T04:37:12.733Z,4.93
2023-02-28T04:39:41.419Z,4.70
2023-02-28T04:42:08.619Z,5.17
2023-02-28T04:44:35.542Z,5.10
2023-02-28T04:47:02.468Z,6.57
2023-02-28T04:49:29.453Z,5.20
2023-02-28T04:51:56.744Z,5.47
2023-02-28T04:54:23.679Z,5.80
2023-02-28T04:56:50.931Z,6.07
2023-02-28T04:59:18.506Z,5.50
2023-02-28T05:01:50.069Z,6.33
2023-02-28T05:04:17.650Z,5.63
2023-02-28T05:06:44.744Z,5.30
2023-02-28T05:09:14.557Z,4.83
2023-02-28T05:11:41.930Z,6.10
2023-02-28T05:14:14.988Z,6.60
2023-02-28T05:16:42.120Z,6.30
2023-02-28T05:19:09.246Z,5.70
2023-02-28T05:21:39.356Z,5.10
2023-02-28T05:24:10.916Z,4.97
2023-02-28T05:26:43.728Z,5.43
2023-02-28T05:29:11.369Z,6.23
2023-02-28T05:31:38.803Z,6.23
2023-02-28T05:34:06.023Z,5.70
2023-02-28T05:36:33.696Z,5.30
2023-02-28T05:39:00.784Z,5.47
2023-02-28T05:41:28.306Z,5.67
2023-02-28T05:43:55.850Z,4.90
2023-02-28T05:46:22.840Z,4.60
2023-02-28T05:48:50.217Z,5.53
2023-02-28T05:51:17.860Z,4.83
2023-02-28T05:53:45.224Z,4.90
2023-02-28T05:56:12.214Z,5.53
2023-02-28T05:58:39.106Z,5.40
2023-02-28T06:01:48.914Z,6.37
2023-02-28T06:04:30.988Z,5.73
2023-02-28T06:06:59.011Z,5.60
2023-02-28T06:09:26.080Z,4.23
2023-02-28T06:11:53.036Z,5.90
2023-02-28T06:14:21.858Z,5.10
2023-02-28T06:16:48.980Z,6.37
2023-02-28T06:19:16.598Z,15.80
2023-02-28T06:21:44.189Z,6.33
2023-02-28T06:24:11.527Z,19.03
2023-02-28T06:26:38.690Z,12.77
2023-02-28T06:29:05.669Z,8.20
2023-02-28T06:31:33.143Z,5.80
2023-02-28T06:34:00.326Z,6.33
2023-02-28T06:36:27.235Z,6.23
2023-02-28T06:38:56.495Z,6.33
2023-02-28T06:41:28.426Z,5.87
2023-02-28T06:43:55.884Z,6.00
2023-02-28T06:46:23.145Z,5.60
2023-02-28T06:48:50.879Z,6.83
2023-02-28T06:51:25.236Z,7.87
2023-02-28T06:53:52.607Z,6.90
2023-02-28T06:56:21.469Z,6.47
2023-02-28T06:58:51.268Z,7.87
2023-02-28T07:01:20.029Z,8.50
2023-02-28T07:03:48.068Z,9.97
2023-02-28T07:06:15.076Z,9.33
2023-02-28T07:08:42.170Z,7.90
2023-02-28T07:11:09.171Z,7.90
2023-02-28T07:13:36.511Z,8.30
2023-02-28T07:16:10.049Z,8.20
2023-02-28T07:18:38.695Z,8.33
2023-02-28T07:21:09.455Z,7.67
2023-02-28T07:23:38.917Z,8.93
2023-02-28T07:26:08.326Z,7.30
2023-02-28T07:28:35.265Z,8.50
2023-02-28T07:31:07.266Z,6.97
2023-02-28T07:33:35.150Z,25.63
2023-02-28T07:36:09.426Z,8.50
2023-02-28T07:38:38.335Z,6.23
2023-02-28T07:41:05.676Z,6.73
2023-02-28T07:43:33.892Z,6.23
2023-02-28T07:46:11.236Z,6.90
2023-02-28T07:48:38.350Z,5.37
2023-02-28T07:51:05.589Z,4.60
2023-02-28T07:53:32.483Z,4.83
2023-02-28T07:56:01.788Z,4.40
2023-02-28T07:58:30.534Z,3.20
2023-02-28T08:00:58.639Z,4.33
2023-02-28T08:03:25.926Z,3.10
2023-02-28T08:05:55.666Z,3.20
2023-02-28T08:08:22.545Z,3.07
2023-02-28T08:10:49.467Z,4.63
2023-02-28T08:13:16.482Z,4.03
2023-02-28T08:15:44.033Z,3.37
2023-02-28T08:18:11.036Z,2.90
2023-02-28T08:20:38.052Z,2.57
2023-02-28T08:23:04.960Z,3.43
2023-02-28T08:25:31.917Z,2.67
2023-02-28T08:27:58.921Z,1.90
2023-02-28T08:30:25.954Z,3.47
2023-02-28T08:32:52.966Z,2.80
2023-02-28T08:35:19.924Z,3.00
2023-02-28T08:37:50.429Z,2.73
2023-02-28T08:40:19.815Z,3.10
2023-02-28T08:42:47.273Z,2.50
2023-02-28T08:45:15.821Z,3.20
2023-02-28T08:47:42.743Z,1.90
2023-02-28T08:50:10.399Z,2.87
2023-02-28T08:52:37.307Z,2.90
2023-02-28T08:55:04.415Z,2.13
2023-02-28T08:57:31.331Z,2.40
2023-02-28T08:59:58.318Z,2.20
2023-02-28T09:02:25.238Z,1.83
2023-02-28T09:04:52.249Z,3.00
2023-02-28T09:07:19.149Z,2.60
2023-02-28T09:09:55.632Z,2.33
2023-02-28T09:12:27.106Z,1.80
2023-02-28T09:14:54.812Z,1.70
2023-02-28T09:17:21.983Z,2.50
2023-02-28T09:19:50.644Z,2.57
2023-02-28T09:22:17.595Z,2.80
2023-02-28T09:24:45.571Z,2.77
2023-02-28T09:27:12.617Z,2.50
2023-02-28T09:29:39.594Z,2.83
2023-02-28T09:32:08.876Z,2.83
2023-02-28T09:34:37.946Z,2.70
2023-02-28T09:37:05.168Z,2.13
2023-02-28T09:39:32.725Z,2.23
2023-02-28T09:42:00.114Z,2.13
2023-02-28T09:44:46.354Z,2.20
2023-02-28T09:47:37.913Z,2.60
2023-02-28T09:50:35.360Z,2.80
2023-02-28T09:53:11.373Z,1.90
2023-02-28T09:55:47.298Z,1.87
2023-02-28T09:58:45.966Z,1.67
2023-02-28T10:01:37.097Z,1.70
2023-02-28T10:04:43.743Z,2.37
2023-02-28T10:08:16.372Z,1.67
2023-02-28T10:10:50.039Z,2.23
2023-02-28T10:13:47.356Z,1.97
2023-02-28T10:16:40.254Z,2.53
2023-02-28T10:19:36.261Z,1.97
2023-02-28T10:22:19.084Z,1.73
2023-02-28T10:24:54.626Z,2.13
2023-02-28T10:27:31.320Z,2.47
2023-02-28T10:30:01.520Z,1.90
2023-02-28T10:32:33.865Z,2.33
2023-02-28T10:35:26.244Z,2.23
2023-02-28T10:37:59.732Z,2.20
2023-02-28T10:40:34.019Z,2.37
2023-02-28T10:43:07.352Z,2.80
2023-02-28T10:45:37.997Z,2.10
2023-02-28T10:48:17.035Z,1.80
2023-02-28T10:50:48.042Z,2.27
2023-02-28T10:53:59.525Z,2.00
2023-02-28T10:56:28.017Z,2.13
2023-02-28T10:59:16.269Z,2.20
2023-02-28T11:01:51.612Z,2.53
2023-02-28T11:04:30.591Z,1.93
2023-02-28T11:07:37.312Z,2.40
2023-02-28T11:10:20.171Z,2.70
2023-02-28T11:12:52.874Z,2.70
2023-02-28T11:15:25.388Z,2.50
2023-02-28T11:18:02.823Z,3.03
2023-02-28T11:20:33.720Z,2.60
2023-02-28T11:23:05.121Z,3.00
2023-02-28T11:25:37.378Z,3.00
2023-02-28T11:28:07.699Z,2.30
2023-02-28T11:30:38.955Z,2.40
2023-02-28T11:33:29.763Z,3.70
2023-02-28T11:36:12.164Z,2.77
2023-02-28T11:38:39.420Z,2.50
2023-02-28T11:41:36.173Z,2.50
2023-02-28T11:47:19.081Z,3.20
2023-02-28T11:50:33.539Z,2.97
2023-02-28T11:53:21.029Z,3.27
2023-02-28T11:56:01.762Z,4.03
2023-02-28T11:58:55.240Z,3.67
2023-02-28T12:02:08.067Z,3.47
2023-02-28T12:05:01.651Z,3.00
2023-02-28T12:07:54.095Z,3.43
2023-02-28T12:10:31.655Z,3.27
2023-02-28T12:13:07.408Z,3.60
2023-02-28T12:16:14.298Z,4.00
2023-02-28T12:19:05.854Z,3.73
2023-02-28T12:21:49.468Z,3.33
2023-02-28T12:24:19.004Z,2.63
2023-02-28T12:26:47.890Z,3.33
2023-02-28T12:29:27.504Z,3.70
2023-02-28T12:32:09.059Z,3.83
2023-02-28T12:34:42.584Z,2.60
2023-02-28T12:37:20.470Z,3.60
2023-02-28T12:39:52.156Z,3.50
2023-02-28T12:42:26.509Z,2.70
2023-02-28T12:45:18.593Z,3.60
2023-02-28T12:47:52.577Z,3.90
2023-02-28T12:50:20.535Z,3.10
2023-02-28T12:52:59.209Z,2.90
2023-02-28T12:55:58.246Z,2.93
2023-02-28T12:58:51.345Z,3.07
2023-02-28T13:01:48.844Z,3.10
2023-02-28T13:05:09.439Z,3.47
2023-02-28T13:08:23.704Z,2.93
2023-02-28T13:10:55.472Z,2.97
2023-02-28T13:13:30.651Z,2.80
2023-02-28T13:16:08.268Z,2.80
2023-02-28T13:18:40.654Z,3.30
2023-02-28T13:21:11.223Z,2.80
2023-02-28T13:23:42.567Z,3.70
2023-02-28T13:26:09.859Z,3.50
2023-02-28T13:28:55.586Z,2.73
2023-02-28T13:32:11.338Z,2.70
2023-02-28T13:35:43.908Z,2.77
2023-02-28T13:38:58.254Z,2.50
2023-02-28T13:42:14.728Z,2.50
2023-02-28T13:46:00.778Z,3.13
2023-02-28T13:49:12.828Z,2.57
2023-02-28T13:56:51.007Z,3.00
2023-02-28T14:00:32.259Z,3.40
2023-02-28T14:03:59.210Z,2.43
2023-02-28T14:07:43.657Z,3.10
2023-02-28T14:11:30.179Z,2.50
2023-02-28T14:15:22.394Z,3.33
2023-02-28T14:26:19.074Z,2.90
2023-02-28T14:34:36.138Z,3.00
2023-02-28T14:36:59.068Z,3.40
2023-02-28T14:39:53.380Z,2.70
2023-02-28T14:47:56.191Z,3.10
2023-02-28T14:50:53.658Z,3.00
2023-02-28T14:54:08.057Z,2.73
2023-02-28T14:57:41.165Z,2.83
2023-02-28T15:00:47.511Z,2.70
2023-02-28T15:04:00.378Z,3.37
2023-02-28T15:06:52.178Z,2.97
2023-02-28T15:09:37.638Z,2.70
2023-02-28T15:15:18.118Z,3.00
2023-02-28T15:18:02.847Z,2.63
2023-02-28T15:20:44.540Z,3.40
2023-02-28T15:23:28.792Z,2.90
2023-02-28T15:26:19.371Z,3.40
2023-02-28T15:29:08.383Z,3.30
2023-02-28T15:31:57.796Z,2.50
2023-02-28T15:34:48.057Z,3.00
2023-02-28T15:38:02.399Z,3.13
2023-02-28T15:40:47.113Z,3.23
2023-02-28T15:43:44.730Z,2.83
2023-02-28T15:46:33.858Z,2.63
2023-02-28T15:49:22.561Z,2.57
2023-02-28T15:52:40.084Z,3.87
2023-02-28T15:55:37.440Z,3.50
2023-02-28T15:58:30.393Z,3.40
2023-02-28T16:02:06.657Z,4.90
2023-02-28T16:05:44.679Z,4.03
2023-02-28T16:08:29.234Z,3.00
2023-02-28T16:11:05.884Z,3.10
2023-02-28T16:13:45.760Z,3.77
2023-02-28T16:16:46.455Z,4.20
2023-02-28T16:19:36.479Z,3.23
2023-02-28T16:22:36.057Z,3.57
2023-02-28T16:29:27.551Z,4.00
2023-02-28T16:33:05.178Z,3.80
2023-02-28T16:36:30.035Z,3.60
2023-02-28T16:39:26.278Z,4.20
2023-02-28T16:41:55.770Z,3.27
2023-02-28T16:45:12.521Z,3.67
2023-02-28T16:55:50.989Z,3.33
2023-02-28T16:58:58.998Z,4.10
2023-02-28T17:01:46.916Z,3.90
2023-02-28T17:04:20.472Z,4.30
2023-02-28T17:07:39.688Z,4.17
2023-02-28T17:10:31.854Z,4.90
2023-02-28T17:13:15.153Z,3.77
2023-02-28T17:16:02.781Z,4.00
2023-02-28T17:18:40.297Z,4.63
2023-02-28T17:21:22.049Z,4.20
2023-02-28T17:24:03.757Z,3.80
2023-02-28T17:26:52.628Z,4.13
2023-02-28T17:29:43.044Z,4.50
2023-02-28T17:32:43.718Z,4.33
2023-02-28T17:35:33.072Z,3.87
2023-02-28T17:41:58.187Z,4.03
2023-02-28T17:44:35.746Z,5.03
2023-02-28T17:51:13.279Z,4.63
2023-02-28T17:54:07.768Z,4.43
2023-02-28T17:57:08.598Z,4.90
2023-02-28T18:03:32.334Z,4.77
2023-02-28T18:06:22.944Z,5.80
2023-02-28T18:09:02.424Z,4.67
2023-02-28T18:11:46.429Z,4.90
2023-02-28T18:14:14.072Z,15.20
2023-02-28T18:17:07.300Z,5.60
2023-02-28T18:19:50.603Z,6.67
2023-02-28T18:22:25.560Z,6.67
2023-02-28T18:24:55.937Z,6.50
2023-02-28T18:27:27.050Z,6.13
2023-02-28T18:29:58.741Z,6.67
2023-02-28T18:32:39.540Z,6.87
2023-02-28T18:35:07.574Z,7.30
2023-02-28T18:38:02.883Z,6.60
2023-02-28T18:40:41.862Z,5.87
2023-02-28T18:43:29.598Z,5.93
2023-02-28T18:46:10.889Z,6.87
2023-02-28T18:51:50.461Z,6.07
2023-02-28T19:01:49.513Z,7.90
2023-02-28T19:05:22.157Z,9.50
2023-02-28T19:12:16.054Z,9.37
2023-02-28T19:15:35.248Z,11.03
2023-02-28T19:23:00.469Z,9.73
2023-02-28T19:26:00.496Z,9.00
2023-02-28T19:32:42.385Z,9.67
2023-02-28T19:36:31.061Z,10.27
2023-02-28T19:39:29.743Z,10.33
2023-02-28T19:42:26.491Z,12.13
2023-02-28T19:45:27.364Z,10.47
2023-02-28T19:48:29.453Z,9.80
2023-02-28T19:54:27.628Z,10.20
2023-02-28T19:57:29.784Z,10.80
2023-02-28T20:00:09.194Z,9.57
2023-02-28T20:02:50.804Z,10.20
2023-02-28T20:09:47.617Z,11.50
2023-02-28T20:12:29.706Z,12.13
2023-02-28T20:15:15.975Z,12.47
2023-02-28T20:17:52.414Z,11.67
2023-02-28T20:20:49.172Z,13.60
2023-02-28T20:24:00.224Z,11.20
2023-02-28T20:27:07.857Z,11.77
2023-02-28T20:29:34.334Z,11.80
2023-02-28T20:32:40.588Z,12.20
2023-02-28T20:39:00.640Z,12.70
2023-02-28T20:42:15.589Z,13.43
2023-02-28T20:45:21.123Z,11.57
2023-02-28T20:48:10.687Z,13.40
2023-02-28T20:51:08.179Z,12.57
2023-02-28T20:54:11.817Z,13.17
2023-02-28T20:57:30.653Z,13.50
2023-02-28T21:00:28.048Z,13.40
2023-02-28T21:03:13.973Z,12.80
2023-02-28T21:06:15.867Z,14.20
2023-02-28T21:09:25.542Z,12.27
2023-02-28T21:20:26.597Z,13.10
2023-02-28T21:27:12.181Z,14.60
2023-02-28T21:37:12.576Z,12.57
2023-02-28T21:40:29.255Z,14.43
2023-02-28T21:43:52.277Z,13.00
2023-02-28T21:47:08.681Z,12.93
2023-02-28T21:50:27.845Z,13.73
2023-02-28T21:53:08.716Z,12.40
2023-02-28T21:56:13.811Z,14.30
2023-02-28T21:59:15.358Z,14.53
2023-02-28T22:02:51.923Z,13.30
2023-02-28T22:06:03.936Z,14.07
2023-02-28T22:12:27.534Z,11.80
2023-02-28T22:15:01.512Z,11.27
2023-02-28T22:17:45.483Z,10.87
2023-02-28T22:20:28.267Z,11.17
2023-02-28T22:23:11.247Z,11.83
2023-02-28T22:25:42.481Z,13.40
2023-02-28T22:28:18.836Z,13.10
2023-02-28T22:31:11.450Z,13.73
2023-02-28T22:33:55.655Z,11.50
2023-02-28T22:36:53.092Z,13.47
2023-02-28T22:40:13.182Z,11.03
2023-02-28T22:42:43.990Z,12.50
2023-02-28T22:45:23.894Z,14.20
2023-02-28T22:48:13.975Z,14.30
2023-02-28T22:50:56.384Z,14.33
2023-02-28T22:53:55.231Z,13.90
2023-02-28T22:56:42.684Z,12.20
2023-02-28T22:59:34.062Z,13.13
2023-02-28T23:02:16.616Z,12.67
2023-02-28T23:05:02.439Z,13.47
2023-02-28T23:08:01.403Z,13.23
2023-02-28T23:10:54.154Z,13.23
2023-02-28T23:13:42.143Z,13.37
2023-02-28T23:16:42.163Z,13.77
2023-02-28T23:19:24.526Z,14.13
2023-02-28T23:22:18.809Z,12.80
2023-02-28T23:25:06.625Z,11.23
2023-02-28T23:27:49.756Z,9.97
2023-02-28T23:30:37.641Z,9.90
2023-02-28T23:33:20.245Z,9.20
2023-02-28T23:36:26.953Z,10.60
2023-02-28T23:42:15.423Z,9.23
2023-02-28T23:45:00.281Z,8.17
2023-02-28T23:47:37.468Z,10.57
2023-02-28T23:54:37.824Z,10.77
2023-02-28T23:58:06.751Z,10.10
